• Join FlightAware (Why Join?)
  • Login
  • US Flag 
09:27AM EDT


 

Airport Tracker/Info


-or-


 

Live Flight TrackerFlight Track Log ✈ AWI3551 ✈ 21-May-2013 ✈ KBUF - KPHL

Flight Track Log - Related Links

Times and Time Zones

All times are in EDT time to prevent confusion due to time zone crossing. See the AWI3551 flight status page for this flight to view local times or setup timezone preferences in your user account.

Time Position Orientation Groundspeed Altitude Reporting Facility
EDT Latitude Longitude Course Direction KTS MPH feet Rate Location/Type
05:37AM 42.9333 -78.7500 174° South 157 181 1,800  Level Buffalo TRACON
05:37AM 42.9167 -78.7667 216° Southwest 156 180 2,500 1,380 Climbing Buffalo TRACON
05:39AM 42.6240 -78.6848 172° South  Level FlightAware Approximate
05:39AM 42.8336 -78.7714 182° South 246 283 4,400  Level Cleveland Center
05:40AM 42.5213 -78.6647 173° South  Level FlightAware Approximate
05:40AM 42.7564 -78.7564 172° South 257 296 6,700  Level Cleveland Center
05:41AM 42.4182 -78.6500 180° South  Level FlightAware Approximate
05:41AM 42.6789 -78.7389 171° South 269 310 8,500  Level Cleveland Center
05:42AM 42.3148 -78.6426 174° South  Level FlightAware Approximate
05:42AM 42.6014 -78.7103 165° South 283 326 10,000  Level Cleveland Center
05:43AM 42.5300 -78.6758 160° South 290 334 11,600 1,920 Climbing Cleveland Center
05:44AM 42.4458 -78.6389 162° South 311 358 13,900 2,100 Climbing Cleveland Center
05:45AM 42.3597 -78.6022 163° South 316 364 15,800 1,560 Climbing Cleveland Center
05:46AM 42.2694 -78.5628 162° South 328 377 17,100 1,440 Climbing Cleveland Center
05:47AM 42.1750 -78.5239 163° South 345 397 18,700 1,620 Climbing Cleveland Center
05:48AM 42.0825 -78.4819 161° South 350 403 20,400 1,140 Climbing Cleveland Center
05:49AM 41.9881 -78.4433 163° South 350 403 21,000 300 Climbing Cleveland Center
05:50AM 41.8892 -78.4019 163° South 356 410 21,000  Level Cleveland Center
05:51AM 41.7947 -78.3606 162° South 362 417 21,000  Level Cleveland Center
05:52AM 41.6917 -78.3197 164° South 367 422 21,000  Level Cleveland Center
05:53AM 41.5969 -78.2758 161° South 367 422 21,000  Level Cleveland Center
05:54AM 41.4983 -78.2350 163° South 367 422 21,000  Level Cleveland Center
05:55AM 41.3389 -78.1686 163° South 372 428 21,000  Level New York Center
05:56AM 41.2433 -78.1306 163° South 372 428 21,000  Level New York Center
05:57AM 41.1500 -78.0900 162° South 372 428 21,000  Level New York Center
05:58AM 41.0544 -78.0494 162° South 372 428 21,000  Level New York Center
05:59AM 40.9589 -78.0117 163° South 372 428 21,000 -660 Level New York Center
06:00AM 40.8864 -77.9328 141° Southeast 350 403 19,800 -1,380 Descending New York Center
06:01AM 40.8331 -77.8175 121° Southeast 350 403 18,300 -900 Descending New York Center
06:02AM 40.7814 -77.7025 121° Southeast 351 404 18,000 -180 Descending New York Center
06:03AM 40.7317 -77.5906 120° Southeast 357 411 18,000  Level New York Center
06:04AM 40.6797 -77.4786 121° Southeast 357 411 18,000  Level New York Center
06:05AM 40.6181 -77.3494 122° Southeast 363 418 18,000  Level New York Center
06:06AM 40.5675 -77.2436 122° Southeast 368 423 18,000  Level New York Center
06:07AM 40.5081 -77.1122 121° Southeast 379 436 18,000  Level New York Center
06:08AM 40.4725 -76.9972 112° Southeast 379 436 18,000 -600 Level New York Center
06:09AM 40.4297 -76.8569 112° Southeast 379 436 16,800 -1,320 Descending New York Center
06:10AM 40.3919 -76.7419 113° Southeast 374 430 15,500 -1,380 Descending New York Center
06:11AM 40.3542 -76.6186 112° Southeast 369 425 14,000 -1,620 Descending New York Center
06:12AM 40.3169 -76.4875 110° East 355 409 12,300 -1,620 Descending New York Center
06:13AM 40.2806 -76.3758 113° Southeast 342 394 10,900 -1,200 Descending New York Center
06:14AM 40.2461 -76.2642 112° Southeast 337 388 10,000 -480 Descending New York Center
06:15AM 40.2097 -76.1497 113° Southeast 337 388 10,000  Level New York Center
06:16AM 40.1711 -76.0381 114° Southeast 337 388 10,000 -60 Level New York Center
06:17AM 40.1419 -75.9436 112° Southeast 330 380 9,900 -780 Descending New York Center
06:18AM 40.1069 -75.8325 112° Southeast 300 345 8,500 -1,380 Descending New York Center
06:19AM 40.0817 -75.7436 110° East 300 345 7,200 -1,200 Descending New York Center
06:20AM 40.0739 -75.6267 95° East 290 334 6,100 -600 Descending New York Center
06:21AM 40.0714 -75.5369 92° East 284 327 6,100  Level New York Center
06:22AM 40.0633 -75.4250 95° East 279 321 6,100  Level New York Center
06:23AM 40.0608 -75.3300 92° East 279 321 6,100 -60 Level New York Center
06:24AM 40.0500 -75.2333 98° East 292 336 6,000 -60 Descending Philadelphia TRACON
06:25AM 40.0000 -75.1833 143° Southeast 224 258 6,000 -180 Level Philadelphia TRACON
06:26AM 39.9833 -75.1167 108° East 190 219 5,700 -540 Descending Philadelphia TRACON
06:27AM 40.0000 -75.0333 75° East 197 227 5,000 -420 Descending Philadelphia TRACON
06:28AM 40.0167 -74.9833 66° East 201 231 5,000  Level Philadelphia TRACON
06:29AM 40.0333 -74.9000 75° East 198 228 5,000  Level Philadelphia TRACON
06:30AM 40.0500 -74.8333 72° East 199 229 5,000 -360 Level Philadelphia TRACON
06:31AM 40.0000 -74.8000 153° Southeast 180 207 4,300 -540 Descending Philadelphia TRACON
06:32AM 39.9667 -74.8167 201° Southwest 182 209 4,000 -180 Descending Philadelphia TRACON
06:33AM 39.9500 -74.8667 247° West 172 198 4,000  Level Philadelphia TRACON
06:34AM 39.9333 -74.9333 252° West 170 196 4,000 -240 Level Philadelphia TRACON
06:35AM 39.9167 -75.0000 252° West 168 193 3,600 -420 Descending Philadelphia TRACON